METAR Data
IDs: Format: Raw Decoded Include TAF

Data at: 0123 UTC 24 Sep 2018

KRNO 240055Z 28015KT 10SM FEW120 26/M09 A2996 RMK AO2 SLP097 T02611089
KRNO 232355Z 28017G23KT 10SM FEW120 27/M08 A2995 RMK AO2 SLP092 T02721083 10289 20244 56007
KRNO 232255Z 28017G25KT 10SM FEW120 28/M07 A2995 RMK AO2 SLP092 T02781072
KRNO 232155Z 29019G25KT 10SM FEW120 FEW200 28/M07 A2996 RMK AO2 PK WND 27029/2136 SLP092 T02781067
KRNO 232055Z 28009G18KT 10SM FEW120 FEW200 28/M07 A2998 RMK AO2 PK WND 22026/2027 WSHFT 2021 SLP099 T02781067 56012
KRNO 232041Z VRB05G23KT 10SM FEW120 FEW200 28/M07 A2998 RMK AO2 PK WND 22026/2027 WSHFT 2021 T02831072
KRNO 231955Z 21015G23KT 10SM FEW130 FEW200 28/M04 A2998 RMK AO2 SLP102 T02781044
KRNO 231855Z 21015KT 10SM FEW210 27/M04 A3000 RMK AO2 PK WND 15027/1835 SLP105 T02721039
KRNO 231755Z 00000KT 10SM FEW210 25/M02 A3002 RMK AO2 SLP112 T02501022 10250 20128 58003
KRNO 231655Z 12004KT 10SM FEW210 FEW250 23/M02 A3003 RMK AO2 SLP118 T02281017
KRNO 231555Z 03003KT 10SM FEW210 SCT250 18/M02 A3003 RMK AO2 SLP120 T01781017
KRNO 231455Z 00000KT 10SM SCT210 SCT250 13/M01 A3002 RMK AO2 SLP124 T01331011 53005
KRNO 231355Z VRB03KT 10SM SCT210 BKN250 13/M02 A3001 RMK AO2 SLP117 T01331017
KRNO 231255Z VRB03KT 10SM BKN210 13/M02 A3001 RMK AO2 SLP112 T01331017
KRNO 231155Z 00000KT 10SM BKN220 14/M02 A3001 RMK AO2 SLP112 T01391017 10183 20133 58007
KRNO 231055Z 00000KT 10SM BKN220 14/M03 A3002 RMK AO2 SLP114 T01441028
KRNO 230955Z 00000KT 10SM SCT170 BKN240 15/M02 A3003 RMK AO2 SLP113 T01501017
KRNO 230855Z 07003KT 10SM SCT170 BKN240 15/M02 A3003 RMK AO2 SLP118 T01501017 58002
KRNO 230755Z 00000KT 10SM SCT170 BKN240 14/M02 A3003 RMK AO2 SLP121 T01441022 403060083
KRNO 230655Z 00000KT 10SM SCT170 BKN240 17/M02 A3004 RMK AO2 SLP122 T01671022
KRNO 230555Z 00000KT 10SM SCT170 BKN240 18/M03 A3004 RMK AO2 SLP124 T01831028 10278 20172 50003
KRNO 230455Z 00000KT 10SM SCT170 BKN240 20/M03 A3005 RMK AO2 SLP130 T02001033
KRNO 230355Z 27009KT 10SM SCT170 BKN240 22/M03 A3004 RMK AO2 SLP130 T02171028
KRNO 230255Z 28009KT 10SM FEW170 SCT240 23/M04 A3003 RMK AO2 SLP131 ACSL DSNT N T02281039 53005
KRNO 230155Z 28011KT 10SM FEW170 SCT240 24/M04 A3001 RMK AO2 SLP125 ACSL DSNT N NE AND NW T02441039
KRNO 230055Z 24007G15KT 210V270 10SM FEW200 SCT240 27/M04 A3001 RMK AO2 SLP120 ACSL DSNT N T02721044
KRNO 222355Z 28018G22KT 10SM FEW200 BKN240 28/M04 A3001 RMK AO2 PK WND 29026/2344 SLP118 ACSL DSNT N T02781039 10306 20228 56011
KRNO 222255Z 28017G21KT 10SM FEW200 BKN240 29/M05 A3002 RMK AO2 PK WND 29028/2211 WSHFT 2224 SLP116 T02891050
KRNO 222244Z 28015KT 10SM FEW200 BKN240 29/M06 A3002 RMK AO2 PK WND 29028/2211 WSHFT 2224 T02941056
KRNO 222155Z 20014G20KT 10SM FEW200 BKN240 30/M04 A3002 RMK AO2 SLP117 T03001039
KRNO 222055Z VRB06KT 10SM FEW200 BKN240 29/M04 A3005 RMK AO2 SLP124 T02941044 58021
KRNO 221955Z 05003KT 10SM FEW190 BKN220 28/M06 A3008 RMK AO2 SLP135 T02781056
KRNO 221855Z 34004KT 10SM SCT220 26/M04 A3010 RMK AO2 SLP143 T02611039
KRNO 221755Z 08003KT 10SM FEW220 23/M02 A3012 RMK AO2 SLP151 T02281017 10228 20083 58007
KRNO 221655Z 00000KT 10SM FEW220 19/M02 A3013 RMK AO2 SLP155 T01891017
KRNO 221555Z 00000KT 10SM SCT220 14/00 A3014 RMK AO2 SLP164 T01440000
KRNO 221455Z 00000KT 10SM SCT220 11/01 A3014 RMK AO2 SLP168 T01060006 53007
KRNO 221355Z 20004KT 10SM FEW220 09/00 A3014 RMK AO2 SLP165 T00890000